Time;durP1;ratioP1;P1;durP2;ratioP2;P2;SDS_P1;SDS_P2;PMS_P1;PMS_P2;Temp;Humidity;BMP_temperature;BMP_pressure;BME280_temperature;BME280_humidity;BME280_pressure;Samples;Min_cycle;Max_cycle;Signal;HPM_P1;HPM_P2
2022/02/08 00:00:20;;;;;;;;;;;21.80;90.20;;;;;;5094847;28;20316;-48
2022/02/08 00:02:51;;;;;;;;;;;21.80;90.20;;;;;;5094595;28;19934;-56
2022/02/08 00:05:20;;;;;;;;;;;21.80;90.20;;;;;;5094238;28;20346;-55
2022/02/08 00:07:50;;;;;;;;;;;21.80;90.20;;;;;;5094049;28;20428;-55
2022/02/08 00:10:18;;;;;;;;;;;21.80;90.20;;;;;;5094869;28;19908;-52
2022/02/08 00:12:45;;;;;;;;;;;21.80;90.20;;;;;;5094030;28;20331;-59
2022/02/08 00:15:12;;;;;;;;;;;21.90;90.30;;;;;;5093768;28;20153;-52
2022/02/08 00:17:39;;;;;;;;;;;21.90;90.40;;;;;;5093218;28;19912;-58
2022/02/08 00:20:07;;;;;;;;;;;21.90;90.40;;;;;;5094236;28;19915;-50
2022/02/08 00:22:35;;;;;;;;;;;21.90;90.50;;;;;;5093589;28;19915;-54
2022/02/08 00:25:02;;;;;;;;;;;21.90;90.50;;;;;;5094141;28;20382;-57
2022/02/08 00:27:29;;;;;;;;;;;21.90;90.50;;;;;;5094097;28;19963;-56
2022/02/08 00:29:55;;;;;;;;;;;22.00;90.50;;;;;;5093696;28;19908;-58
2022/02/08 00:32:22;;;;;;;;;;;22.00;90.50;;;;;;5094044;28;19999;-55
2022/02/08 00:34:49;;;;;;;;;;;22.00;90.60;;;;;;5092206;28;19908;-54
2022/02/08 00:37:16;;;;;;;;;;;22.00;90.60;;;;;;5092691;28;19958;-56
2022/02/08 00:39:43;;;;;;;;;;;22.00;90.60;;;;;;5075202;28;19908;-57
2022/02/08 00:42:11;;;;;;;;;;;22.00;90.70;;;;;;5087173;28;19919;-52
2022/02/08 00:44:48;;;;;;;;;;;22.00;91.50;;;;;;5067162;28;19917;-54
2022/02/08 00:49:43;;;;;;;;;;;22.00;91.00;;;;;;5055731;28;20058;-55
2022/02/08 00:52:15;;;;;;;;;;;22.00;90.90;;;;;;5067270;28;19912;-54
2022/02/08 00:54:49;;;;;;;;;;;22.10;90.90;;;;;;5037576;28;19921;-57
2022/02/08 00:57:16;;;;;;;;;;;22.10;91.00;;;;;;5052442;28;20259;-58
2022/02/08 00:59:44;;;;;;;;;;;22.10;91.10;;;;;;5053926;28;19943;-59
2022/02/08 01:02:10;;;;;;;;;;;22.20;91.20;;;;;;5054680;28;19962;-62
2022/02/08 01:04:37;;;;;;;;;;;22.10;91.40;;;;;;5068833;28;20010;-57
2022/02/08 01:07:05;;;;;;;;;;;22.10;91.50;;;;;;5062171;28;19927;-56
2022/02/08 01:09:46;;;;;;;;;;;22.10;91.60;;;;;;5092870;28;19916;-53
2022/02/08 01:12:13;;;;;;;;;;;22.10;91.60;;;;;;5092861;28;20236;-60
2022/02/08 01:14:42;;;;;;;;;;;22.20;91.80;;;;;;5098705;28;20005;-58
2022/02/08 01:17:10;;;;;;;;;;;22.20;91.70;;;;;;5113444;28;19908;-62
2022/02/08 01:19:43;;;;;;;;;;;22.20;91.60;;;;;;5113110;28;19947;-61
2022/02/08 01:22:10;;;;;;;;;;;22.30;91.40;;;;;;5112014;28;19941;-60
2022/02/08 01:24:37;;;;;;;;;;;22.30;91.40;;;;;;5112632;28;20009;-63
2022/02/08 01:27:09;;;;;;;;;;;22.30;91.50;;;;;;5113100;28;20270;-62
2022/02/08 01:29:40;;;;;;;;;;;22.30;91.50;;;;;;5111879;28;19908;-57
2022/02/08 01:35:23;;;;;;;;;;;22.40;91.50;;;;;;5092016;28;19954;-60
2022/02/08 01:37:58;;;;;;;;;;;22.40;91.50;;;;;;5092154;28;19989;-57
2022/02/08 01:45:45;;;;;;;;;;;22.50;91.40;;;;;;5113214;28;20024;-56
2022/02/08 01:48:28;;;;;;;;;;;22.60;91.50;;;;;;5093463;28;19934;-57
2022/02/08 01:51:01;;;;;;;;;;;22.60;91.30;;;;;;5100063;28;19947;-52
2022/02/08 01:53:27;;;;;;;;;;;22.80;91.20;;;;;;5099910;28;19910;-52
2022/02/08 01:55:57;;;;;;;;;;;22.80;91.10;;;;;;5092587;28;19912;-53
2022/02/08 01:58:24;;;;;;;;;;;22.90;90.80;;;;;;5092326;28;19947;-60
2022/02/08 02:00:51;;;;;;;;;;;23.00;90.90;;;;;;5092023;28;19908;-54
2022/02/08 02:03:18;;;;;;;;;;;23.10;90.70;;;;;;5085343;28;20328;-58
2022/02/08 02:05:45;;;;;;;;;;;23.20;90.60;;;;;;5092869;28;19908;-56
2022/02/08 02:08:11;;;;;;;;;;;23.30;90.40;;;;;;5090840;28;20385;-55
2022/02/08 02:10:38;;;;;;;;;;;23.40;90.00;;;;;;5091763;28;19931;-56
2022/02/08 02:13:50;;;;;;;;;;;23.50;89.30;;;;;;5093978;28;19970;-56
2022/02/08 02:15:57;;;;;;;;;;;23.60;89.00;;;;;;5092229;28;19927;-57
2022/02/08 02:18:24;;;;;;;;;;;23.70;89.00;;;;;;5094365;28;19962;-57
2022/02/08 02:20:51;;;;;;;;;;;23.70;88.40;;;;;;5096042;28;19908;-55
2022/02/08 02:23:18;;;;;;;;;;;23.80;88.20;;;;;;5095534;28;19958;-53
2022/02/08 02:25:44;;;;;;;;;;;23.90;87.70;;;;;;5077866;28;19968;-57
2022/02/08 02:28:11;;;;;;;;;;;23.90;87.60;;;;;;5095191;28;19939;-57
2022/02/08 02:30:38;;;;;;;;;;;23.90;87.50;;;;;;5077492;28;20000;-58
2022/02/08 02:33:07;;;;;;;;;;;23.90;86.40;;;;;;5096038;28;19917;-55
2022/02/08 02:35:34;;;;;;;;;;;24.00;87.40;;;;;;5095422;28;20408;-47
2022/02/08 02:38:03;;;;;;;;;;;24.00;87.10;;;;;;5095175;28;20008;-55
2022/02/08 02:40:32;;;;;;;;;;;24.00;87.10;;;;;;5095166;28;19931;-55
2022/02/08 02:43:00;;;;;;;;;;;24.10;86.10;;;;;;5095365;28;19909;-59
2022/02/08 02:45:27;;;;;;;;;;;24.10;85.70;;;;;;5095447;28;19908;-59
2022/02/08 02:47:54;;;;;;;;;;;24.20;86.80;;;;;;5095298;28;19942;-50
2022/02/08 02:50:22;;;;;;;;;;;24.20;86.30;;;;;;5077353;28;19908;-55
2022/02/08 02:52:49;;;;;;;;;;;24.20;85.80;;;;;;5095821;28;19928;-57
2022/02/08 02:55:16;;;;;;;;;;;24.20;86.10;;;;;;5095529;28;19919;-60
2022/02/08 02:57:45;;;;;;;;;;;24.20;85.40;;;;;;5094906;28;19908;-56
2022/02/08 03:00:24;;;;;;;;;;;24.30;86.00;;;;;;5068817;28;20020;-54
2022/02/08 03:02:57;;;;;;;;;;;24.30;85.80;;;;;;5055313;28;19923;-58
2022/02/08 03:05:38;;;;;;;;;;;24.50;84.50;;;;;;5068322;28;19999;-59
2022/02/08 03:19:04;;;;;;;;;;;24.80;80.50;;;;;;5091586;28;19918;-56
2022/02/08 03:21:34;;;;;;;;;;;24.90;79.70;;;;;;5091621;28;19934;-54
2022/02/08 03:24:00;;;;;;;;;;;24.90;79.40;;;;;;5088379;28;19947;-56
2022/02/08 03:26:27;;;;;;;;;;;25.00;79.40;;;;;;5090314;28;19923;-56
2022/02/08 03:28:54;;;;;;;;;;;25.00;78.80;;;;;;5091253;28;19935;-56
2022/02/08 03:31:20;;;;;;;;;;;25.00;78.30;;;;;;5091263;28;20006;-60
2022/02/08 03:33:47;;;;;;;;;;;25.10;75.80;;;;;;5088213;28;19954;-54
2022/02/08 03:36:14;;;;;;;;;;;25.10;78.30;;;;;;5090335;28;20278;-49
2022/02/08 03:38:44;;;;;;;;;;;25.10;78.50;;;;;;5091322;28;20398;-49
2022/02/08 03:41:11;;;;;;;;;;;25.10;79.00;;;;;;5090326;28;19919;-56
2022/02/08 03:43:41;;;;;;;;;;;25.00;79.10;;;;;;5088543;28;19923;-48
2022/02/08 03:46:13;;;;;;;;;;;25.00;79.80;;;;;;5090853;28;19916;-45
2022/02/08 03:48:42;;;;;;;;;;;25.10;78.60;;;;;;5091199;28;19912;-54
2022/02/08 03:51:15;;;;;;;;;;;25.10;80.30;;;;;;5090450;28;19989;-53
2022/02/08 03:53:43;;;;;;;;;;;25.20;79.40;;;;;;5087755;28;19912;-52
2022/02/08 03:56:11;;;;;;;;;;;25.20;79.20;;;;;;5090818;28;19954;-52
2022/02/08 03:58:38;;;;;;;;;;;25.30;79.50;;;;;;5090384;28;19912;-46
2022/02/08 04:06:29;;;;;;;;;;;25.50;77.80;;;;;;5094236;28;20366;-52
2022/02/08 04:08:58;;;;;;;;;;;25.50;76.00;;;;;;5093992;28;19908;-56
2022/02/08 04:11:25;;;;;;;;;;;25.60;78.30;;;;;;5093890;28;19919;-53
2022/02/08 04:13:59;;;;;;;;;;;25.70;76.30;;;;;;5092551;28;20397;-52
2022/02/08 04:16:35;;;;;;;;;;;25.70;77.10;;;;;;5093956;28;19960;-57
2022/02/08 04:33:03;;;;;;;;;;;25.90;78.00;;;;;;5092025;28;19993;-56
2022/02/08 04:35:47;;;;;;;;;;;25.90;77.70;;;;;;5086070;28;20408;-50
2022/02/08 04:38:33;;;;;;;;;;;25.90;77.60;;;;;;5088615;28;20018;-48
2022/02/08 04:41:08;;;;;;;;;;;25.90;78.10;;;;;;5090046;28;19916;-51
2022/02/08 04:43:46;;;;;;;;;;;25.80;78.20;;;;;;5089806;28;20355;-52
2022/02/08 04:46:30;;;;;;;;;;;25.90;78.50;;;;;;5091799;28;19912;-62
2022/02/08 04:48:58;;;;;;;;;;;25.80;78.80;;;;;;5091785;28;19912;-58
2022/02/08 04:51:30;;;;;;;;;;;25.70;78.80;;;;;;5092239;28;20339;-63
2022/02/08 04:54:11;;;;;;;;;;;25.70;79.40;;;;;;5093196;28;19916;-49
2022/02/08 05:02:28;;;;;;;;;;;25.80;79.50;;;;;;5093282;28;19919;-60
2022/02/08 05:41:33;;;;;;;;;;;25.40;81.20;;;;;;5067615;28;19938;-47
2022/02/08 05:43:49;;;;;;;;;;;25.40;81.00;;;;;;5051435;28;19913;-59
2022/02/08 05:48:49;;;;;;;;;;;25.30;81.60;;;;;;5050555;28;19909;-59
2022/02/08 05:51:22;;;;;;;;;;;25.30;81.70;;;;;;5032996;28;19952;-56
2022/02/08 05:53:48;;;;;;;;;;;25.30;81.70;;;;;;5050923;28;19916;-59
2022/02/08 05:56:16;;;;;;;;;;;25.30;81.50;;;;;;5051274;28;20272;-57
2022/02/08 05:58:45;;;;;;;;;;;25.30;81.90;;;;;;5051117;28;19913;-58
2022/02/08 06:01:13;;;;;;;;;;;25.30;81.80;;;;;;5052458;28;20315;-57
2022/02/08 06:03:40;;;;;;;;;;;25.30;81.80;;;;;;5053290;28;19913;-56
2022/02/08 06:06:07;;;;;;;;;;;25.30;81.30;;;;;;5052932;28;19995;-56
2022/02/08 06:08:33;;;;;;;;;;;25.20;82.20;;;;;;5067342;28;19944;-60
2022/02/08 06:11:05;;;;;;;;;;;25.20;82.50;;;;;;5053222;28;19915;-54
2022/02/08 06:13:31;;;;;;;;;;;25.10;82.70;;;;;;5052845;28;20319;-56
2022/02/08 06:16:03;;;;;;;;;;;25.10;82.40;;;;;;5068228;28;19975;-55
2022/02/08 06:18:30;;;;;;;;;;;25.10;81.80;;;;;;5073255;28;20014;-58
2022/02/08 06:20:57;;;;;;;;;;;25.10;82.10;;;;;;5071579;28;19915;-58
2022/02/08 06:23:25;;;;;;;;;;;25.00;82.40;;;;;;5072160;28;20316;-55
2022/02/08 06:25:51;;;;;;;;;;;25.00;82.80;;;;;;5072051;28;19908;-53
2022/02/08 06:28:21;;;;;;;;;;;25.00;82.60;;;;;;5071991;28;19928;-56
2022/02/08 06:30:48;;;;;;;;;;;25.00;82.50;;;;;;5072181;28;19908;-57
2022/02/08 06:33:15;;;;;;;;;;;24.90;83.40;;;;;;5071747;28;20267;-57
2022/02/08 06:35:42;;;;;;;;;;;24.90;83.40;;;;;;5072220;28;20043;-57
2022/02/08 06:38:12;;;;;;;;;;;24.90;83.80;;;;;;5072018;28;19908;-54
2022/02/08 06:40:40;;;;;;;;;;;24.80;83.90;;;;;;5071737;28;19912;-55
2022/02/08 06:43:07;;;;;;;;;;;24.80;83.20;;;;;;5071893;28;19974;-54
2022/02/08 06:45:34;;;;;;;;;;;24.80;84.10;;;;;;5072150;28;19915;-54
2022/02/08 06:48:03;;;;;;;;;;;24.80;83.30;;;;;;5071639;28;19917;-57
2022/02/08 06:50:30;;;;;;;;;;;24.80;83.80;;;;;;5073342;28;19908;-57
2022/02/08 06:52:57;;;;;;;;;;;24.70;84.30;;;;;;5075789;28;19922;-57
2022/02/08 06:55:28;;;;;;;;;;;24.70;84.00;;;;;;5075986;28;19947;-59
2022/02/08 06:58:06;;;;;;;;;;;24.70;83.60;;;;;;5075671;28;19913;-57
2022/02/08 07:00:37;;;;;;;;;;;24.70;84.50;;;;;;5076078;28;19923;-57
2022/02/08 07:03:08;;;;;;;;;;;24.70;84.50;;;;;;5076278;28;20339;-57
2022/02/08 07:05:35;;;;;;;;;;;24.70;84.40;;;;;;5075541;28;19909;-56
2022/02/08 07:08:01;;;;;;;;;;;24.70;84.20;;;;;;5076234;28;19917;-53
2022/02/08 07:10:29;;;;;;;;;;;24.70;84.00;;;;;;5075830;28;19953;-55
2022/02/08 07:12:56;;;;;;;;;;;24.70;84.40;;;;;;5075993;28;20316;-56
2022/02/08 07:15:22;;;;;;;;;;;24.70;84.10;;;;;;5107671;28;19924;-57
2022/02/08 07:17:49;;;;;;;;;;;24.70;84.60;;;;;;5074698;28;20002;-55
2022/02/08 07:20:27;;;;;;;;;;;24.70;84.60;;;;;;5075379;28;19908;-46
2022/02/08 07:22:56;;;;;;;;;;;24.60;84.90;;;;;;5075243;28;19908;-52
2022/02/08 07:25:23;;;;;;;;;;;24.60;84.70;;;;;;5074745;28;20011;-60
2022/02/08 07:27:50;;;;;;;;;;;24.60;85.10;;;;;;5074859;28;19923;-51
2022/02/08 07:30:17;;;;;;;;;;;24.60;85.00;;;;;;5072434;28;19947;-49
2022/02/08 07:32:46;;;;;;;;;;;24.60;84.80;;;;;;5091216;28;20242;-53
2022/02/08 07:35:24;;;;;;;;;;;24.70;84.50;;;;;;5090027;28;20281;-52
2022/02/08 07:37:58;;;;;;;;;;;24.60;83.10;;;;;;5092787;28;19914;-49
2022/02/08 07:43:02;;;;;;;;;;;24.60;84.00;;;;;;5091766;28;19908;-53
2022/02/08 07:45:29;;;;;;;;;;;24.60;84.10;;;;;;5087928;28;20427;-49
2022/02/08 07:47:55;;;;;;;;;;;24.50;82.40;;;;;;5091603;28;19942;-47
2022/02/08 07:50:24;;;;;;;;;;;24.50;83.60;;;;;;5091355;28;20014;-50
2022/02/08 07:52:51;;;;;;;;;;;24.50;83.60;;;;;;5090953;28;19941;-52
2022/02/08 07:55:22;;;;;;;;;;;24.50;84.50;;;;;;5085472;28;19939;-48
2022/02/08 07:57:49;;;;;;;;;;;24.50;83.90;;;;;;5091783;28;19908;-59
2022/02/08 08:00:16;;;;;;;;;;;24.50;83.80;;;;;;5091129;28;19931;-50
2022/02/08 08:02:44;;;;;;;;;;;24.40;83.50;;;;;;5090001;28;20323;-53
2022/02/08 08:05:11;;;;;;;;;;;24.40;83.70;;;;;;5088656;28;19908;-49
2022/02/08 08:07:38;;;;;;;;;;;24.30;84.50;;;;;;5088228;28;19924;-48
2022/02/08 08:10:06;;;;;;;;;;;24.30;84.70;;;;;;5092000;28;19920;-49
2022/02/08 08:12:36;;;;;;;;;;;24.30;84.70;;;;;;5092196;28;19999;-48
2022/02/08 08:15:12;;;;;;;;;;;24.20;84.60;;;;;;5090734;28;19920;-50
2022/02/08 08:17:56;;;;;;;;;;;24.10;85.10;;;;;;5088212;28;20280;-54
2022/02/08 08:20:22;;;;;;;;;;;24.10;85.20;;;;;;5089078;28;19951;-56
2022/02/08 08:22:49;;;;;;;;;;;24.10;85.30;;;;;;5091888;28;19926;-57
2022/02/08 08:25:16;;;;;;;;;;;24.10;85.50;;;;;;5093847;28;19954;-54
2022/02/08 08:27:43;;;;;;;;;;;24.10;85.50;;;;;;5093864;28;19916;-59
2022/02/08 08:30:10;;;;;;;;;;;24.10;85.60;;;;;;5092253;28;20315;-58
2022/02/08 08:32:42;;;;;;;;;;;24.10;85.60;;;;;;5092544;28;19908;-58
2022/02/08 08:35:10;;;;;;;;;;;24.10;85.70;;;;;;5093801;28;19908;-51
2022/02/08 08:37:41;;;;;;;;;;;24.10;85.70;;;;;;5093924;28;20373;-55
2022/02/08 08:40:21;;;;;;;;;;;24.10;85.70;;;;;;5093645;28;19908;-57
2022/02/08 08:43:01;;;;;;;;;;;24.10;85.80;;;;;;5093901;28;19908;-58
2022/02/08 08:53:26;;;;;;;;;;;24.00;86.60;;;;;;5094057;28;19908;-59
2022/02/08 08:55:53;;;;;;;;;;;24.00;87.90;;;;;;5093875;28;20338;-57
2022/02/08 08:58:19;;;;;;;;;;;24.00;89.70;;;;;;5093930;28;19908;-55
2022/02/08 09:00:46;;;;;;;;;;;24.10;89.90;;;;;;5093369;28;19908;-60
2022/02/08 09:03:13;;;;;;;;;;;24.10;89.90;;;;;;5093560;28;19908;-61
2022/02/08 09:05:43;;;;;;;;;;;24.00;90.10;;;;;;5093584;28;19915;-53
2022/02/08 09:08:13;;;;;;;;;;;24.00;90.00;;;;;;5093298;28;20012;-62
2022/02/08 09:10:52;;;;;;;;;;;24.00;90.00;;;;;;5093679;28;19908;-63
2022/02/08 09:13:44;;;;;;;;;;;24.00;90.20;;;;;;5093261;28;19908;-57
2022/02/08 09:16:23;;;;;;;;;;;24.00;90.10;;;;;;5093064;28;20369;-60
2022/02/08 09:21:43;;;;;;;;;;;24.00;90.20;;;;;;5093953;28;19919;-58
2022/02/08 09:29:47;;;;;;;;;;;23.90;90.00;;;;;;5092775;28;19912;-56
2022/02/08 09:32:32;;;;;;;;;;;23.80;90.10;;;;;;5081939;28;19930;-59
2022/02/08 09:34:58;;;;;;;;;;;23.90;90.10;;;;;;5080020;28;19909;-59
2022/02/08 09:37:25;;;;;;;;;;;23.90;90.50;;;;;;5073461;28;20381;-59
2022/02/08 09:39:53;;;;;;;;;;;23.90;90.50;;;;;;5077328;28;19967;-62
2022/02/08 09:42:20;;;;;;;;;;;23.80;90.30;;;;;;5084454;28;19916;-52
2022/02/08 09:44:47;;;;;;;;;;;23.80;90.30;;;;;;5077570;28;20008;-58
2022/02/08 09:47:18;;;;;;;;;;;23.80;90.30;;;;;;5075195;28;19916;-53
2022/02/08 09:49:53;;;;;;;;;;;23.70;90.30;;;;;;5078505;28;19961;-58
2022/02/08 09:52:21;;;;;;;;;;;23.70;90.30;;;;;;5080721;28;20321;-57
2022/02/08 09:55:09;;;;;;;;;;;23.70;90.30;;;;;;5083384;28;19912;-57
2022/02/08 09:57:35;;;;;;;;;;;23.70;90.40;;;;;;5075992;28;19909;-56
2022/02/08 10:00:02;;;;;;;;;;;23.70;90.40;;;;;;5085155;28;19917;-54
2022/02/08 10:02:29;;;;;;;;;;;23.70;90.40;;;;;;5081195;28;20315;-55
2022/02/08 10:05:00;;;;;;;;;;;23.70;90.40;;;;;;5079288;28;19953;-57
2022/02/08 10:07:30;;;;;;;;;;;23.70;90.30;;;;;;5084125;28;19920;-59
2022/02/08 10:09:59;;;;;;;;;;;23.70;90.30;;;;;;5085922;28;20366;-54
2022/02/08 10:12:32;;;;;;;;;;;23.70;90.30;;;;;;5087398;28;19909;-57
2022/02/08 10:22:48;;;;;;;;;;;23.60;90.20;;;;;;5083069;28;20266;-52
2022/02/08 10:25:28;;;;;;;;;;;23.60;90.20;;;;;;5062783;28;19912;-57
2022/02/08 10:28:09;;;;;;;;;;;23.70;90.20;;;;;;5089969;28;19924;-59
2022/02/08 10:38:43;;;;;;;;;;;23.60;90.20;;;;;;5082952;28;20044;-56
2022/02/08 10:41:24;;;;;;;;;;;23.60;90.10;;;;;;5078653;28;19909;-57
2022/02/08 10:44:02;;;;;;;;;;;23.60;90.10;;;;;;5091163;28;19908;-52
2022/02/08 10:46:29;;;;;;;;;;;23.60;90.10;;;;;;5096209;28;19916;-60
2022/02/08 10:49:12;;;;;;;;;;;23.60;90.10;;;;;;5095965;28;20006;-59
2022/02/08 10:51:51;;;;;;;;;;;23.60;90.10;;;;;;5071836;28;19927;-55
2022/02/08 10:54:42;;;;;;;;;;;23.50;90.10;;;;;;5074546;28;20003;-50
2022/02/08 10:57:22;;;;;;;;;;;23.50;90.10;;;;;;5075520;28;19916;-60
2022/02/08 10:59:56;;;;;;;;;;;23.50;90.10;;;;;;5075673;28;19915;-53
2022/02/08 11:02:32;;;;;;;;;;;23.50;90.10;;;;;;5075329;28;19912;-53
2022/02/08 11:05:13;;;;;;;;;;;23.50;90.10;;;;;;5058764;28;19962;-57
2022/02/08 11:08:02;;;;;;;;;;;23.50;90.10;;;;;;5075457;28;20405;-59
2022/02/08 11:13:26;;;;;;;;;;;23.50;90.20;;;;;;5076155;28;19908;-52
2022/02/08 11:16:09;;;;;;;;;;;23.40;90.10;;;;;;5089679;28;20281;-58
2022/02/08 11:18:56;;;;;;;;;;;23.40;90.20;;;;;;5094666;28;19909;-49
2022/02/08 11:21:38;;;;;;;;;;;23.40;90.20;;;;;;5094744;28;19908;-50
2022/02/08 11:24:39;;;;;;;;;;;23.40;90.20;;;;;;5094487;28;19915;-52
2022/02/08 11:27:11;;;;;;;;;;;23.40;90.20;;;;;;5094142;28;20402;-59
2022/02/08 11:29:49;;;;;;;;;;;23.40;90.20;;;;;;5094240;28;20008;-46
2022/02/08 11:32:31;;;;;;;;;;;23.30;90.20;;;;;;5095162;28;19908;-51
2022/02/08 11:44:05;;;;;;;;;;;23.20;90.40;;;;;;5092803;28;20350;-58
2022/02/08 11:54:24;;;;;;;;;;;23.20;90.70;;;;;;5094158;28;19931;-45
2022/02/08 12:05:19;;;;;;;;;;;23.20;90.70;;;;;;5094133;28;19921;-54
2022/02/08 12:07:48;;;;;;;;;;;23.20;90.70;;;;;;5093719;28;19916;-58
2022/02/08 12:10:28;;;;;;;;;;;23.10;90.70;;;;;;5094248;28;20412;-53
2022/02/08 12:35:20;;;;;;;;;;;23.00;90.60;;;;;;5094674;28;19908;-52
2022/02/08 12:57:49;;;;;;;;;;;22.80;90.60;;;;;;5082286;28;19918;-60
2022/02/08 13:00:37;;;;;;;;;;;22.80;90.60;;;;;;5093265;28;19912;-60
2022/02/08 13:06:15;;;;;;;;;;;22.80;90.60;;;;;;5094099;28;19970;-57
2022/02/08 13:20:15;;;;;;;;;;;22.70;90.40;;;;;;5094244;28;20277;-57
2022/02/08 14:14:45;;;;;;;;;;;22.40;90.50;;;;;;5089271;28;19962;-50
2022/02/08 14:30:19;;;;;;;;;;;22.30;90.60;;;;;;5075003;28;19958;-49
2022/02/08 14:35:42;;;;;;;;;;;22.30;90.60;;;;;;5091123;28;20358;-54
2022/02/08 14:57:27;;;;;;;;;;;22.20;90.60;;;;;;5087603;28;20025;-49
2022/02/08 14:57:39;;;;;;;;;;;22.20;90.60;;;;;;5088190;28;20342;-46
2022/02/08 15:13:19;;;;;;;;;;;22.10;90.60;;;;;;5088013;28;20359;-51
2022/02/08 15:18:32;;;;;;;;;;;22.10;90.60;;;;;;5088370;28;19944;-52
2022/02/08 15:21:04;;;;;;;;;;;22.10;90.60;;;;;;5077958;28;20034;-51
2022/02/08 15:23:31;;;;;;;;;;;22.00;90.60;;;;;;5089193;28;19914;-55
2022/02/08 15:25:59;;;;;;;;;;;22.00;90.60;;;;;;5088687;28;19947;-52
2022/02/08 15:28:27;;;;;;;;;;;22.00;90.60;;;;;;5086301;28;20009;-48
2022/02/08 15:30:55;;;;;;;;;;;22.00;90.60;;;;;;5078834;28;19908;-59
2022/02/08 15:33:22;;;;;;;;;;;22.00;90.60;;;;;;5075071;28;20274;-58
2022/02/08 15:35:49;;;;;;;;;;;22.00;90.60;;;;;;5075239;28;19908;-55
2022/02/08 15:38:16;;;;;;;;;;;21.90;90.60;;;;;;5074627;28;19908;-57
2022/02/08 15:40:43;;;;;;;;;;;22.00;90.60;;;;;;5075018;28;20334;-57
2022/02/08 15:43:10;;;;;;;;;;;21.90;90.60;;;;;;5074843;28;19909;-59
2022/02/08 15:45:43;;;;;;;;;;;21.90;90.60;;;;;;5074951;28;19908;-59
2022/02/08 15:48:13;;;;;;;;;;;21.90;90.60;;;;;;5074529;28;19916;-53
2022/02/08 15:53:26;;;;;;;;;;;21.90;90.60;;;;;;5074915;28;19913;-57
2022/02/08 16:00:22;;;;;;;;;;;21.90;90.60;;;;;;5074209;28;20322;-58
2022/02/08 16:12:27;;;;;;;;;;;21.80;90.60;;;;;;5074543;28;19915;-57
2022/02/08 16:15:18;;;;;;;;;;;21.80;90.60;;;;;;5067319;28;20435;-58
2022/02/08 16:28:26;;;;;;;;;;;21.80;90.60;;;;;;5094658;28;19927;-56
2022/02/08 16:55:47;;;;;;;;;;;21.60;90.50;;;;;;5094357;28;20318;-58
2022/02/08 17:00:57;;;;;;;;;;;21.60;90.60;;;;;;5093945;28;19938;-59
2022/02/08 17:03:28;;;;;;;;;;;21.60;90.60;;;;;;5093723;28;20236;-58
2022/02/08 17:05:55;;;;;;;;;;;21.60;90.50;;;;;;5093464;28;19912;-58
2022/02/08 17:08:23;;;;;;;;;;;21.60;90.50;;;;;;5093486;28;19915;-53
2022/02/08 17:10:53;;;;;;;;;;;21.60;90.50;;;;;;5093747;28;19917;-59
2022/02/08 17:45:56;;;;;;;;;;;21.50;90.50;;;;;;5093658;28;19915;-59
2022/02/08 17:48:23;;;;;;;;;;;21.50;90.50;;;;;;5093267;28;19995;-58
2022/02/08 17:50:50;;;;;;;;;;;21.50;90.50;;;;;;5093366;28;19908;-59
2022/02/08 17:53:17;;;;;;;;;;;21.50;90.50;;;;;;5093415;28;20427;-57
2022/02/08 17:55:44;;;;;;;;;;;21.50;90.50;;;;;;5093178;28;19934;-58
2022/02/08 17:58:12;;;;;;;;;;;21.40;90.50;;;;;;5092778;28;19938;-61
2022/02/08 18:00:39;;;;;;;;;;;21.40;90.50;;;;;;5093076;28;19916;-57
2022/02/08 18:03:06;;;;;;;;;;;21.40;90.50;;;;;;5092933;28;20006;-56
2022/02/08 18:05:32;;;;;;;;;;;21.40;90.50;;;;;;5093095;28;19916;-54
2022/02/08 18:07:59;;;;;;;;;;;21.40;90.50;;;;;;5092862;28;20310;-57
2022/02/08 18:10:26;;;;;;;;;;;21.40;90.50;;;;;;5091934;28;19908;-59
2022/02/08 18:12:56;;;;;;;;;;;21.40;90.50;;;;;;5092995;28;19913;-59
2022/02/08 18:15:25;;;;;;;;;;;21.40;90.50;;;;;;5092909;28;20014;-58
2022/02/08 18:17:59;;;;;;;;;;;21.40;90.50;;;;;;5092849;28;19969;-58
2022/02/08 18:20:35;;;;;;;;;;;21.40;90.50;;;;;;5092857;28;19977;-58
2022/02/08 19:21:35;;;;;;;;;;;21.20;90.60;;;;;;5095515;28;19908;-60
2022/02/08 19:24:02;;;;;;;;;;;21.20;90.40;;;;;;5094922;28;19912;-49
2022/02/08 19:26:29;;;;;;;;;;;21.20;90.30;;;;;;5093856;28;19997;-59
2022/02/08 19:28:58;;;;;;;;;;;21.10;90.30;;;;;;5095253;28;19912;-57
2022/02/08 19:31:25;;;;;;;;;;;21.10;90.30;;;;;;5095331;28;20275;-52
2022/02/08 19:33:52;;;;;;;;;;;21.10;90.30;;;;;;5094967;28;19999;-53
2022/02/08 19:36:19;;;;;;;;;;;21.10;90.30;;;;;;5095209;28;19912;-57
2022/02/08 19:38:49;;;;;;;;;;;21.10;90.30;;;;;;5095280;28;19908;-58
2022/02/08 19:41:19;;;;;;;;;;;21.10;90.30;;;;;;5095299;28;20355;-55
2022/02/08 19:43:46;;;;;;;;;;;21.10;90.30;;;;;;5095822;28;19914;-57
2022/02/08 19:46:13;;;;;;;;;;;21.10;90.30;;;;;;5095068;28;19909;-52
2022/02/08 19:48:40;;;;;;;;;;;21.10;90.30;;;;;;5095378;28;19916;-52
2022/02/08 19:51:07;;;;;;;;;;;21.10;90.30;;;;;;5095174;28;20283;-51
2022/02/08 19:53:35;;;;;;;;;;;21.10;90.30;;;;;;5095165;28;19908;-50
2022/02/08 19:58:50;;;;;;;;;;;21.10;90.30;;;;;;5094788;28;19908;-54
2022/02/08 20:01:30;;;;;;;;;;;21.10;90.50;;;;;;5094757;28;19969;-48
2022/02/08 20:04:18;;;;;;;;;;;21.10;90.30;;;;;;5094584;28;20274;-52
2022/02/08 20:06:45;;;;;;;;;;;21.00;90.30;;;;;;5094664;28;19908;-53
2022/02/08 20:09:12;;;;;;;;;;;21.10;90.30;;;;;;5094579;28;20338;-59
2022/02/08 20:11:38;;;;;;;;;;;21.10;90.20;;;;;;5094519;28;20033;-59
2022/02/08 20:14:07;;;;;;;;;;;21.10;90.20;;;;;;5093155;28;19908;-52
2022/02/08 20:16:35;;;;;;;;;;;21.10;90.20;;;;;;5094298;28;19958;-53
2022/02/08 20:19:04;;;;;;;;;;;21.10;90.20;;;;;;5094069;28;20258;-51
2022/02/08 20:21:32;;;;;;;;;;;21.10;90.20;;;;;;5094010;28;19953;-51
2022/02/08 20:24:02;;;;;;;;;;;21.10;90.20;;;;;;5093860;28;19912;-53
2022/02/08 20:29:17;;;;;;;;;;;21.20;90.20;;;;;;5082567;28;20251;-53
2022/02/08 20:31:47;;;;;;;;;;;21.20;90.20;;;;;;5093525;28;19919;-51
2022/02/08 20:34:16;;;;;;;;;;;21.20;90.20;;;;;;5093382;28;19908;-48
2022/02/08 20:36:43;;;;;;;;;;;21.20;90.20;;;;;;5092321;28;19912;-50
2022/02/08 20:39:10;;;;;;;;;;;21.20;90.20;;;;;;5093738;28;20230;-52
2022/02/08 20:41:36;;;;;;;;;;;21.20;90.20;;;;;;5093653;28;19952;-50
2022/02/08 20:44:03;;;;;;;;;;;21.30;90.20;;;;;;5093426;28;19912;-48
2022/02/08 20:46:31;;;;;;;;;;;21.30;90.20;;;;;;5093423;28;19947;-50
2022/02/08 20:48:58;;;;;;;;;;;21.30;90.20;;;;;;5093671;28;19912;-56
2022/02/08 20:51:27;;;;;;;;;;;21.30;90.10;;;;;;5093585;28;19908;-57
2022/02/08 20:53:55;;;;;;;;;;;21.30;90.10;;;;;;5093912;28;19909;-52
2022/02/08 20:56:37;;;;;;;;;;;21.40;90.20;;;;;;5092339;28;19907;-50
2022/02/08 20:59:07;;;;;;;;;;;21.40;90.10;;;;;;5093149;28;19908;-59
2022/02/08 21:01:35;;;;;;;;;;;21.40;90.10;;;;;;5093174;28;19908;-61
2022/02/08 21:04:13;;;;;;;;;;;21.40;90.10;;;;;;5093399;28;20370;-55
2022/02/08 21:06:41;;;;;;;;;;;21.40;90.00;;;;;;5093544;28;20020;-57
2022/02/08 21:09:09;;;;;;;;;;;21.40;90.10;;;;;;5092830;28;20012;-60
2022/02/08 21:11:38;;;;;;;;;;;21.50;90.10;;;;;;5092958;28;19908;-56
2022/02/08 21:14:11;;;;;;;;;;;21.50;90.00;;;;;;5092859;28;20372;-59
2022/02/08 21:16:42;;;;;;;;;;;21.50;90.00;;;;;;5093684;28;19923;-59
2022/02/08 21:19:12;;;;;;;;;;;21.50;90.00;;;;;;5092899;28;19908;-60
2022/02/08 21:21:39;;;;;;;;;;;21.50;90.00;;;;;;5093396;28;19954;-59
2022/02/08 21:24:06;;;;;;;;;;;21.60;90.00;;;;;;5093052;28;19973;-60
2022/02/08 21:26:37;;;;;;;;;;;21.60;90.00;;;;;;5093543;28;19923;-59
2022/02/08 21:32:20;;;;;;;;;;;21.60;90.10;;;;;;5090029;28;19939;-54
2022/02/08 21:53:26;;;;;;;;;;;22.00;90.10;;;;;;5092627;28;19965;-54
2022/02/08 21:55:57;;;;;;;;;;;22.00;90.10;;;;;;5092734;28;19950;-54
2022/02/08 21:58:29;;;;;;;;;;;22.00;90.10;;;;;;5093056;28;19982;-53
2022/02/08 22:00:56;;;;;;;;;;;22.10;90.10;;;;;;5092550;28;19957;-50
2022/02/08 22:03:24;;;;;;;;;;;22.10;90.10;;;;;;5092368;28;20074;-51
2022/02/08 22:05:50;;;;;;;;;;;22.20;90.00;;;;;;5086623;28;20352;-56
2022/02/08 22:08:33;;;;;;;;;;;22.20;90.00;;;;;;5091713;28;19922;-52
2022/02/08 22:24:25;;;;;;;;;;;22.40;89.90;;;;;;5088062;28;19908;-55
2022/02/08 22:32:16;;;;;;;;;;;22.60;89.60;;;;;;5083384;28;19936;-53
2022/02/08 22:34:50;;;;;;;;;;;22.60;89.50;;;;;;5088646;28;20357;-50
2022/02/08 22:37:22;;;;;;;;;;;;;;;;;;;;;
2022/02/08 22:39:52;;;;;;;;;;;22.60;89.30;;;;;;5091962;28;19920;-56
2022/02/08 22:42:27;;;;;;;;;;;22.70;89.30;;;;;;5058855;28;19909;-56
2022/02/08 22:44:56;;;;;;;;;;;22.70;89.20;;;;;;5094082;28;19908;-57
2022/02/08 22:47:24;;;;;;;;;;;22.80;89.00;;;;;;5095762;28;19931;-59
2022/02/08 22:49:51;;;;;;;;;;;22.80;88.70;;;;;;5095399;28;19919;-50
2022/02/08 22:52:19;;;;;;;;;;;22.90;88.90;;;;;;5084567;28;19913;-45
2022/02/08 22:54:46;;;;;;;;;;;22.90;89.00;;;;;;5086461;28;19909;-49